createdAt,value
2022-12-28T00:00:27.478Z,1010.25
2022-12-28T00:05:27.360Z,1010.32
2022-12-28T00:11:06.740Z,1010.27
2022-12-28T00:15:28.267Z,1010.39
2022-12-28T00:20:27.156Z,1010.29
2022-12-28T00:25:27.105Z,1010.21
2022-12-28T00:30:27.066Z,1010.19
2022-12-28T00:35:26.967Z,1010.08
2022-12-28T00:40:26.909Z,1010.19
2022-12-28T00:45:26.922Z,1010.18
2022-12-28T00:50:26.768Z,1010.15
2022-12-28T00:55:26.728Z,1010.14
2022-12-28T01:00:26.633Z,1010.02
2022-12-28T01:05:26.603Z,1010.05
2022-12-28T01:10:26.554Z,1009.95
2022-12-28T01:15:26.441Z,1009.96
2022-12-28T01:20:26.375Z,1009.88
2022-12-28T01:25:26.321Z,1009.86
2022-12-28T01:30:26.275Z,1009.81
2022-12-28T01:35:26.202Z,1009.73
2022-12-28T01:40:26.116Z,1009.58
2022-12-28T01:45:26.082Z,1009.67
2022-12-28T01:50:25.998Z,1009.51
2022-12-28T01:55:26.197Z,1009.53
2022-12-28T02:00:25.877Z,1009.49
2022-12-28T02:05:25.806Z,1009.28
2022-12-28T02:10:44.411Z,1009.34
2022-12-28T02:15:26.659Z,1009.34
2022-12-28T02:20:25.612Z,1008.87
2022-12-28T02:25:25.536Z,1008.82
2022-12-28T02:30:25.562Z,1008.84
2022-12-28T02:35:25.425Z,1008.78
2022-12-28T02:40:25.356Z,1008.62
2022-12-28T02:45:25.329Z,1008.54
2022-12-28T02:50:25.193Z,1008.52
2022-12-28T02:55:25.131Z,1008.38
2022-12-28T03:00:25.095Z,1008.23
2022-12-28T03:05:24.999Z,1008.26
2022-12-28T03:10:24.980Z,1008.12
2022-12-28T03:15:24.911Z,1008.08
2022-12-28T03:20:24.824Z,1008.00
2022-12-28T03:25:24.775Z,1007.95
2022-12-28T03:30:24.704Z,1007.88
2022-12-28T03:35:24.650Z,1007.86
2022-12-28T03:40:24.583Z,1007.72
2022-12-28T03:45:45.738Z,1007.54
2022-12-28T03:50:25.417Z,1007.40
2022-12-28T03:55:24.397Z,1007.23
2022-12-28T04:00:24.308Z,1007.22
2022-12-28T04:05:24.268Z,1007.22
2022-12-28T04:10:24.149Z,1007.08
2022-12-28T04:15:24.106Z,1007.07
2022-12-28T04:20:24.028Z,1006.90
2022-12-28T04:25:23.979Z,1006.83
2022-12-28T04:30:23.917Z,1006.75
2022-12-28T04:35:23.831Z,1006.67
2022-12-28T04:40:23.774Z,1006.70
2022-12-28T04:45:23.698Z,1006.74
2022-12-28T04:50:23.623Z,1006.57
2022-12-28T04:55:32.903Z,1006.60
2022-12-28T05:00:24.510Z,1006.50
2022-12-28T05:05:23.452Z,1006.39
2022-12-28T05:10:23.352Z,1006.35
2022-12-28T05:15:23.285Z,1006.43
2022-12-28T05:20:23.256Z,1006.35
2022-12-28T05:25:23.181Z,1006.21
2022-12-28T05:30:23.083Z,1006.17
2022-12-28T05:35:23.021Z,1005.94
2022-12-28T05:40:22.957Z,1006.13
2022-12-28T05:45:22.900Z,1006.09
2022-12-28T05:50:22.886Z,1006.09
2022-12-28T05:55:22.760Z,1006.05
2022-12-28T06:00:22.731Z,1006.08
2022-12-28T06:05:22.673Z,1006.08
2022-12-28T06:10:22.585Z,1006.04
2022-12-28T06:15:22.514Z,1005.97
2022-12-28T06:20:22.466Z,1005.70
2022-12-28T06:25:22.382Z,1005.64
2022-12-28T06:30:22.320Z,1005.74
2022-12-28T06:35:22.260Z,1005.77
2022-12-28T06:40:39.649Z,1005.74
2022-12-28T06:45:23.111Z,1005.82
2022-12-28T06:50:22.073Z,1005.70
2022-12-28T06:55:22.010Z,1005.52
2022-12-28T07:00:21.941Z,1005.43
2022-12-28T07:05:22.014Z,1005.65
2022-12-28T07:10:21.803Z,1005.56
2022-12-28T07:15:21.735Z,1005.53
2022-12-28T07:20:21.679Z,1005.37
2022-12-28T07:25:21.609Z,1005.17
2022-12-28T07:30:21.558Z,1005.16
2022-12-28T07:35:21.448Z,1004.97
2022-12-28T07:40:21.436Z,1004.87
2022-12-28T07:45:21.327Z,1004.80
2022-12-28T07:50:21.289Z,1004.86
2022-12-28T07:55:21.182Z,1004.74
2022-12-28T08:00:21.120Z,1004.75
2022-12-28T08:05:21.089Z,1004.84
2022-12-28T08:10:21.010Z,1004.74
2022-12-28T08:15:20.932Z,1004.73
2022-12-28T08:20:20.872Z,1004.70
2022-12-28T08:25:20.859Z,1004.63
2022-12-28T08:30:20.809Z,1004.56
2022-12-28T08:35:20.714Z,1004.42
2022-12-28T08:40:20.600Z,1004.43
2022-12-28T08:45:20.559Z,1004.28
2022-12-28T08:50:31.165Z,1004.21
2022-12-28T08:55:21.405Z,1004.27
2022-12-28T09:00:20.423Z,1004.21
2022-12-28T09:05:20.338Z,1004.18
2022-12-28T09:10:20.236Z,1003.93
2022-12-28T09:15:20.123Z,1003.94
2022-12-28T09:20:20.104Z,1003.83
2022-12-28T09:25:20.031Z,1003.89
2022-12-28T09:30:19.959Z,1003.72
2022-12-28T09:35:19.974Z,1003.77
2022-12-28T09:40:19.844Z,1003.70
2022-12-28T09:45:19.767Z,1003.66
2022-12-28T09:50:19.728Z,1003.70
2022-12-28T09:55:19.616Z,1003.72
2022-12-28T10:00:19.592Z,1003.57
2022-12-28T10:05:19.532Z,1003.57
2022-12-28T10:10:19.472Z,1003.34
2022-12-28T10:15:19.360Z,1003.38
2022-12-28T10:20:19.453Z,1003.37
2022-12-28T10:25:19.399Z,1003.22
2022-12-28T10:30:20.082Z,1003.27
2022-12-28T10:35:19.163Z,1003.17
2022-12-28T10:40:19.245Z,1002.97
2022-12-28T10:45:18.973Z,1002.91
2022-12-28T10:50:36.706Z,1002.87
2022-12-28T10:55:19.800Z,1002.84
2022-12-28T11:00:18.756Z,1002.83
2022-12-28T11:05:18.706Z,1002.84
2022-12-28T11:10:18.646Z,1002.75
2022-12-28T11:15:18.542Z,1002.62
2022-12-28T11:20:18.551Z,1002.37
2022-12-28T11:25:18.384Z,1002.35
2022-12-28T11:30:18.461Z,1002.30
2022-12-28T11:35:18.276Z,1002.33
2022-12-28T11:40:18.222Z,1002.28
2022-12-28T11:45:18.122Z,1002.17
2022-12-28T11:50:18.054Z,1002.19
2022-12-28T11:55:17.975Z,1002.14
2022-12-28T12:00:22.225Z,1002.24
2022-12-28T12:05:18.928Z,1002.17
2022-12-28T12:10:17.833Z,1002.08
2022-12-28T12:15:17.734Z,1001.98
2022-12-28T12:20:17.821Z,1001.88
2022-12-28T12:25:17.595Z,1001.78
2022-12-28T12:30:17.572Z,1001.96
2022-12-28T12:35:17.451Z,1001.92
2022-12-28T12:40:17.410Z,1001.90
2022-12-28T12:45:17.344Z,1001.79
2022-12-28T12:50:17.290Z,1001.73
2022-12-28T12:55:17.195Z,1001.80
2022-12-28T13:00:17.199Z,1001.84
2022-12-28T13:05:17.309Z,1001.90
2022-12-28T13:10:17.012Z,1001.85
2022-12-28T13:15:16.941Z,1001.79
2022-12-28T13:20:16.877Z,1001.83
2022-12-28T13:25:16.785Z,1001.86
2022-12-28T13:30:16.758Z,1001.64
2022-12-28T13:35:16.667Z,1001.63
2022-12-28T13:40:16.656Z,1001.67
2022-12-28T13:45:16.591Z,1001.64
2022-12-28T13:50:16.506Z,1001.72
2022-12-28T13:55:16.419Z,1001.69
2022-12-28T14:00:16.342Z,1001.70
2022-12-28T14:05:16.276Z,1001.66
2022-12-28T14:10:16.220Z,1001.56
2022-12-28T14:15:16.206Z,1001.67
2022-12-28T14:20:16.134Z,1001.64
2022-12-28T14:25:15.979Z,1001.69
2022-12-28T14:30:15.984Z,1001.63
2022-12-28T14:35:15.865Z,1001.65
2022-12-28T14:40:15.822Z,1001.56
2022-12-28T14:45:15.763Z,1001.62
2022-12-28T14:50:15.669Z,1001.67
2022-12-28T14:55:15.597Z,1001.62
2022-12-28T15:00:15.527Z,1001.55
2022-12-28T15:05:15.479Z,1001.57
2022-12-28T15:10:15.448Z,1001.60
2022-12-28T15:15:15.325Z,1001.60
2022-12-28T15:20:15.259Z,1001.48
2022-12-28T15:25:15.377Z,1001.46
2022-12-28T15:30:20.581Z,1001.53
2022-12-28T15:35:16.062Z,1001.55
2022-12-28T15:40:14.977Z,1001.53
2022-12-28T15:45:14.932Z,1001.57
2022-12-28T15:50:14.898Z,1001.49
2022-12-28T15:55:14.765Z,1001.42
2022-12-28T16:00:15.666Z,1001.41
2022-12-28T16:05:14.642Z,1001.36
2022-12-28T16:10:14.630Z,1001.38
2022-12-28T16:15:14.572Z,1001.49
2022-12-28T16:20:14.515Z,1001.34
2022-12-28T16:25:14.459Z,1001.27
2022-12-28T16:30:14.357Z,1001.21
2022-12-28T16:35:14.261Z,1001.16
2022-12-28T16:40:14.209Z,1001.17
2022-12-28T16:45:14.161Z,1001.24
2022-12-28T16:50:14.092Z,1001.19
2022-12-28T16:55:14.311Z,1001.24
2022-12-28T17:00:13.966Z,1001.05
2022-12-28T17:05:13.866Z,1001.09
2022-12-28T17:10:13.817Z,1001.08
2022-12-28T17:15:13.766Z,1001.12
2022-12-28T17:20:13.701Z,1001.05
2022-12-28T17:25:13.654Z,1001.12
2022-12-28T17:30:13.622Z,1001.03
2022-12-28T17:35:13.470Z,1001.03
2022-12-28T17:40:13.423Z,1000.90
2022-12-28T17:45:13.380Z,1000.90
2022-12-28T17:50:13.306Z,1000.90
2022-12-28T17:55:13.249Z,1000.91
2022-12-28T18:00:13.180Z,1000.81
2022-12-28T18:05:13.119Z,1000.82
2022-12-28T18:10:13.070Z,1000.76
2022-12-28T18:15:13.028Z,1000.82
2022-12-28T18:20:12.926Z,1000.78
2022-12-28T18:25:12.850Z,1000.81
2022-12-28T18:30:12.805Z,1000.71
2022-12-28T18:35:12.800Z,1000.68
2022-12-28T18:40:12.701Z,1000.68
2022-12-28T18:45:12.614Z,1000.64
2022-12-28T18:50:12.547Z,1000.74
2022-12-28T18:55:12.461Z,1000.81
2022-12-28T19:00:12.408Z,1000.76
2022-12-28T19:05:12.348Z,1000.72
2022-12-28T19:10:13.413Z,1000.68
2022-12-28T19:15:12.241Z,1000.64
2022-12-28T19:20:12.143Z,1000.54
2022-12-28T19:25:12.094Z,1000.41
2022-12-28T19:30:12.041Z,1000.20
2022-12-28T19:35:11.926Z,1000.14
2022-12-28T19:40:11.910Z,1000.14
2022-12-28T19:45:11.826Z,999.96
2022-12-28T19:50:11.753Z,1000.04
2022-12-28T19:55:11.668Z,1000.01
2022-12-28T20:00:11.647Z,1000.01
2022-12-28T20:05:11.562Z,999.92
2022-12-28T20:10:11.501Z,999.90
2022-12-28T20:15:11.461Z,999.86
2022-12-28T20:20:11.408Z,999.82
2022-12-28T20:25:11.313Z,999.77
2022-12-28T20:30:11.339Z,999.60
2022-12-28T20:35:11.181Z,999.67
2022-12-28T20:40:11.185Z,999.56
2022-12-28T20:45:11.422Z,999.63
2022-12-28T20:50:10.966Z,999.64
2022-12-28T20:55:10.875Z,999.54
2022-12-28T21:00:10.846Z,999.57
2022-12-28T21:05:11.019Z,999.45
2022-12-28T21:10:10.745Z,999.39
2022-12-28T21:15:10.701Z,999.39
2022-12-28T21:20:10.590Z,999.36
2022-12-28T21:25:10.590Z,999.03
2022-12-28T21:30:10.828Z,999.01
2022-12-28T21:35:10.415Z,998.95
2022-12-28T21:40:10.345Z,998.85
2022-12-28T21:45:10.276Z,998.74
2022-12-28T21:50:10.216Z,998.70
2022-12-28T21:55:10.155Z,998.64
2022-12-28T22:00:10.114Z,998.54
2022-12-28T22:05:10.994Z,998.42
2022-12-28T22:10:09.968Z,998.35
2022-12-28T22:15:09.916Z,998.22
2022-12-28T22:20:09.793Z,998.16
2022-12-28T22:25:09.763Z,997.97
2022-12-28T22:30:09.641Z,997.95
2022-12-28T22:35:09.584Z,997.76
2022-12-28T22:40:09.572Z,997.77
2022-12-28T22:45:09.452Z,997.70
2022-12-28T22:50:09.394Z,997.67
2022-12-28T22:55:09.432Z,997.62
2022-12-28T23:00:09.288Z,997.53
2022-12-28T23:05:09.202Z,997.54
2022-12-28T23:10:09.154Z,997.48
2022-12-28T23:15:09.059Z,997.28
2022-12-28T23:20:09.024Z,997.18
2022-12-28T23:25:08.968Z,997.10
2022-12-28T23:30:09.240Z,997.03
2022-12-28T23:35:08.918Z,997.11
2022-12-28T23:40:08.764Z,997.06
2022-12-28T23:45:08.825Z,997.05
2022-12-28T23:50:08.602Z,997.00
2022-12-28T23:55:08.544Z,996.92
